sensor_id;sensor_type;location;lat;lon;timestamp;P1;durP1;ratioP1;P2;durP2;ratioP2
18999;SDS011;9633;50.980;13.850;2023-05-10T00:00:08;4.93;;;2.60;;
18999;SDS011;9633;50.980;13.850;2023-05-10T00:01:45;5.27;;;2.77;;
18999;SDS011;9633;50.980;13.850;2023-05-10T00:03:18;3.67;;;2.87;;
18999;SDS011;9633;50.980;13.850;2023-05-10T00:04:51;2.93;;;2.63;;
18999;SDS011;9633;50.980;13.850;2023-05-10T00:06:25;3.90;;;2.77;;
18999;SDS011;9633;50.980;13.850;2023-05-10T00:07:59;3.80;;;2.77;;
18999;SDS011;9633;50.980;13.850;2023-05-10T00:09:32;3.27;;;2.43;;
18999;SDS011;9633;50.980;13.850;2023-05-10T00:11:05;3.93;;;2.50;;
18999;SDS011;9633;50.980;13.850;2023-05-10T00:12:37;3.93;;;2.40;;
18999;SDS011;9633;50.980;13.850;2023-05-10T00:14:12;3.77;;;2.93;;
18999;SDS011;9633;50.980;13.850;2023-05-10T00:15:45;3.33;;;2.70;;
18999;SDS011;9633;50.980;13.850;2023-05-10T00:17:18;2.60;;;2.30;;
18999;SDS011;9633;50.980;13.850;2023-05-10T00:18:50;2.53;;;2.30;;
18999;SDS011;9633;50.980;13.850;2023-05-10T00:20:23;2.70;;;2.40;;
18999;SDS011;9633;50.980;13.850;2023-05-10T00:21:56;3.50;;;2.67;;
18999;SDS011;9633;50.980;13.850;2023-05-10T00:23:29;2.97;;;2.60;;
18999;SDS011;9633;50.980;13.850;2023-05-10T00:25:02;4.33;;;2.50;;
18999;SDS011;9633;50.980;13.850;2023-05-10T00:26:35;3.43;;;2.40;;
18999;SDS011;9633;50.980;13.850;2023-05-10T00:28:08;3.83;;;2.50;;
18999;SDS011;9633;50.980;13.850;2023-05-10T00:29:42;4.53;;;2.40;;
18999;SDS011;9633;50.980;13.850;2023-05-10T00:31:16;3.10;;;2.63;;
18999;SDS011;9633;50.980;13.850;2023-05-10T00:32:49;2.70;;;2.30;;
18999;SDS011;9633;50.980;13.850;2023-05-10T00:34:23;2.70;;;2.50;;
18999;SDS011;9633;50.980;13.850;2023-05-10T00:35:56;4.47;;;2.70;;
18999;SDS011;9633;50.980;13.850;2023-05-10T00:37:29;3.77;;;2.57;;
18999;SDS011;9633;50.980;13.850;2023-05-10T00:39:01;2.47;;;2.20;;
18999;SDS011;9633;50.980;13.850;2023-05-10T00:40:35;4.20;;;2.60;;
18999;SDS011;9633;50.980;13.850;2023-05-10T00:42:09;4.97;;;2.30;;
18999;SDS011;9633;50.980;13.850;2023-05-10T00:43:42;3.70;;;2.27;;
18999;SDS011;9633;50.980;13.850;2023-05-10T00:45:17;2.83;;;2.20;;
18999;SDS011;9633;50.980;13.850;2023-05-10T00:46:50;6.77;;;2.50;;
18999;SDS011;9633;50.980;13.850;2023-05-10T00:48:24;4.77;;;2.30;;
18999;SDS011;9633;50.980;13.850;2023-05-10T00:49:57;3.27;;;2.40;;
18999;SDS011;9633;50.980;13.850;2023-05-10T00:51:31;4.17;;;2.40;;
18999;SDS011;9633;50.980;13.850;2023-05-10T00:53:05;3.77;;;2.40;;
18999;SDS011;9633;50.980;13.850;2023-05-10T00:54:37;3.97;;;2.60;;
18999;SDS011;9633;50.980;13.850;2023-05-10T00:56:10;5.50;;;2.40;;
18999;SDS011;9633;50.980;13.850;2023-05-10T00:57:44;3.40;;;2.37;;
18999;SDS011;9633;50.980;13.850;2023-05-10T00:59:17;2.73;;;2.40;;
18999;SDS011;9633;50.980;13.850;2023-05-10T01:00:52;2.40;;;2.13;;
18999;SDS011;9633;50.980;13.850;2023-05-10T01:02:24;3.93;;;2.30;;
18999;SDS011;9633;50.980;13.850;2023-05-10T01:04:00;3.80;;;2.63;;
18999;SDS011;9633;50.980;13.850;2023-05-10T01:05:34;5.17;;;2.50;;
18999;SDS011;9633;50.980;13.850;2023-05-10T01:07:06;3.10;;;2.20;;
18999;SDS011;9633;50.980;13.850;2023-05-10T01:08:41;4.27;;;2.40;;
18999;SDS011;9633;50.980;13.850;2023-05-10T01:10:13;3.73;;;2.47;;
18999;SDS011;9633;50.980;13.850;2023-05-10T01:11:47;2.57;;;2.03;;
18999;SDS011;9633;50.980;13.850;2023-05-10T01:13:23;2.90;;;2.50;;
18999;SDS011;9633;50.980;13.850;2023-05-10T01:15:04;3.23;;;2.13;;
18999;SDS011;9633;50.980;13.850;2023-05-10T01:16:40;4.10;;;2.30;;
18999;SDS011;9633;50.980;13.850;2023-05-10T01:18:16;3.87;;;2.20;;
18999;SDS011;9633;50.980;13.850;2023-05-10T01:19:54;2.13;;;1.93;;
18999;SDS011;9633;50.980;13.850;2023-05-10T01:21:28;2.87;;;2.30;;
18999;SDS011;9633;50.980;13.850;2023-05-10T01:23:09;2.30;;;2.10;;
18999;SDS011;9633;50.980;13.850;2023-05-10T01:25:11;3.40;;;2.33;;
18999;SDS011;9633;50.980;13.850;2023-05-10T01:27:20;4.00;;;2.30;;
18999;SDS011;9633;50.980;13.850;2023-05-10T01:29:09;3.37;;;2.30;;
18999;SDS011;9633;50.980;13.850;2023-05-10T01:31:03;3.43;;;2.30;;
18999;SDS011;9633;50.980;13.850;2023-05-10T01:32:48;2.97;;;2.30;;
18999;SDS011;9633;50.980;13.850;2023-05-10T01:34:27;4.33;;;2.63;;
18999;SDS011;9633;50.980;13.850;2023-05-10T01:36:09;2.30;;;2.00;;
18999;SDS011;9633;50.980;13.850;2023-05-10T01:37:59;3.43;;;2.23;;
18999;SDS011;9633;50.980;13.850;2023-05-10T01:39:43;2.90;;;2.30;;
18999;SDS011;9633;50.980;13.850;2023-05-10T01:41:19;3.63;;;2.40;;
18999;SDS011;9633;50.980;13.850;2023-05-10T01:43:01;2.40;;;2.20;;
18999;SDS011;9633;50.980;13.850;2023-05-10T01:44:37;5.47;;;2.23;;
18999;SDS011;9633;50.980;13.850;2023-05-10T01:46:16;2.87;;;2.47;;
18999;SDS011;9633;50.980;13.850;2023-05-10T01:47:56;2.93;;;2.23;;
18999;SDS011;9633;50.980;13.850;2023-05-10T01:49:34;2.47;;;2.27;;
18999;SDS011;9633;50.980;13.850;2023-05-10T01:51:12;3.23;;;2.27;;
18999;SDS011;9633;50.980;13.850;2023-05-10T01:52:49;3.40;;;2.50;;
18999;SDS011;9633;50.980;13.850;2023-05-10T01:54:27;4.90;;;2.50;;
18999;SDS011;9633;50.980;13.850;2023-05-10T01:56:01;3.90;;;2.80;;
18999;SDS011;9633;50.980;13.850;2023-05-10T01:57:36;4.60;;;2.70;;
18999;SDS011;9633;50.980;13.850;2023-05-10T01:59:13;3.77;;;2.60;;
18999;SDS011;9633;50.980;13.850;2023-05-10T02:00:50;3.23;;;2.67;;
18999;SDS011;9633;50.980;13.850;2023-05-10T02:02:26;3.70;;;2.30;;
18999;SDS011;9633;50.980;13.850;2023-05-10T02:04:01;2.77;;;2.50;;
18999;SDS011;9633;50.980;13.850;2023-05-10T02:05:35;3.00;;;2.57;;
18999;SDS011;9633;50.980;13.850;2023-05-10T02:07:09;3.97;;;2.40;;
18999;SDS011;9633;50.980;13.850;2023-05-10T02:08:43;4.70;;;2.67;;
18999;SDS011;9633;50.980;13.850;2023-05-10T02:10:18;3.53;;;2.57;;
18999;SDS011;9633;50.980;13.850;2023-05-10T02:11:51;3.40;;;2.57;;
18999;SDS011;9633;50.980;13.850;2023-05-10T02:13:26;3.00;;;2.60;;
18999;SDS011;9633;50.980;13.850;2023-05-10T02:15:02;2.73;;;2.50;;
18999;SDS011;9633;50.980;13.850;2023-05-10T02:16:36;3.30;;;2.37;;
18999;SDS011;9633;50.980;13.850;2023-05-10T02:18:12;3.63;;;2.40;;
18999;SDS011;9633;50.980;13.850;2023-05-10T02:19:48;3.90;;;2.67;;
18999;SDS011;9633;50.980;13.850;2023-05-10T02:21:22;3.67;;;2.60;;
18999;SDS011;9633;50.980;13.850;2023-05-10T02:22:56;2.63;;;2.43;;
18999;SDS011;9633;50.980;13.850;2023-05-10T02:24:29;2.97;;;2.67;;
18999;SDS011;9633;50.980;13.850;2023-05-10T02:26:04;2.90;;;2.60;;
18999;SDS011;9633;50.980;13.850;2023-05-10T02:27:38;2.63;;;2.30;;
18999;SDS011;9633;50.980;13.850;2023-05-10T02:29:15;5.40;;;2.30;;
18999;SDS011;9633;50.980;13.850;2023-05-10T02:30:49;3.47;;;2.50;;
18999;SDS011;9633;50.980;13.850;2023-05-10T02:32:23;4.17;;;3.03;;
18999;SDS011;9633;50.980;13.850;2023-05-10T02:33:58;3.83;;;2.80;;
18999;SDS011;9633;50.980;13.850;2023-05-10T02:35:34;4.70;;;2.87;;
18999;SDS011;9633;50.980;13.850;2023-05-10T02:37:08;3.80;;;2.83;;
18999;SDS011;9633;50.980;13.850;2023-05-10T02:38:41;3.77;;;2.17;;
18999;SDS011;9633;50.980;13.850;2023-05-10T02:40:15;3.33;;;2.57;;
18999;SDS011;9633;50.980;13.850;2023-05-10T02:41:50;3.80;;;2.93;;
18999;SDS011;9633;50.980;13.850;2023-05-10T02:43:24;2.80;;;2.27;;
18999;SDS011;9633;50.980;13.850;2023-05-10T02:45:00;3.70;;;2.53;;
18999;SDS011;9633;50.980;13.850;2023-05-10T02:46:33;3.90;;;2.33;;
18999;SDS011;9633;50.980;13.850;2023-05-10T02:48:08;3.50;;;2.73;;
18999;SDS011;9633;50.980;13.850;2023-05-10T02:49:42;2.97;;;2.70;;
18999;SDS011;9633;50.980;13.850;2023-05-10T02:51:17;3.23;;;2.50;;
18999;SDS011;9633;50.980;13.850;2023-05-10T02:52:51;3.47;;;2.77;;
18999;SDS011;9633;50.980;13.850;2023-05-10T02:54:32;4.03;;;2.57;;
18999;SDS011;9633;50.980;13.850;2023-05-10T02:56:10;5.13;;;2.63;;
18999;SDS011;9633;50.980;13.850;2023-05-10T02:57:47;4.90;;;2.60;;
18999;SDS011;9633;50.980;13.850;2023-05-10T02:59:24;3.17;;;2.87;;
18999;SDS011;9633;50.980;13.850;2023-05-10T03:00:57;2.90;;;2.60;;
18999;SDS011;9633;50.980;13.850;2023-05-10T03:02:30;4.00;;;2.53;;
18999;SDS011;9633;50.980;13.850;2023-05-10T03:04:03;3.00;;;2.67;;
18999;SDS011;9633;50.980;13.850;2023-05-10T03:05:37;3.60;;;2.50;;
18999;SDS011;9633;50.980;13.850;2023-05-10T03:07:12;2.60;;;2.40;;
18999;SDS011;9633;50.980;13.850;2023-05-10T03:08:45;4.30;;;2.60;;
18999;SDS011;9633;50.980;13.850;2023-05-10T03:10:19;4.67;;;2.90;;
18999;SDS011;9633;50.980;13.850;2023-05-10T03:11:55;4.93;;;2.77;;
18999;SDS011;9633;50.980;13.850;2023-05-10T03:13:36;3.80;;;2.60;;
18999;SDS011;9633;50.980;13.850;2023-05-10T03:15:17;3.67;;;2.90;;
18999;SDS011;9633;50.980;13.850;2023-05-10T03:16:58;5.43;;;2.70;;
18999;SDS011;9633;50.980;13.850;2023-05-10T03:18:37;2.70;;;2.50;;
18999;SDS011;9633;50.980;13.850;2023-05-10T03:20:20;3.53;;;2.73;;
18999;SDS011;9633;50.980;13.850;2023-05-10T03:21:58;6.27;;;2.93;;
18999;SDS011;9633;50.980;13.850;2023-05-10T03:23:43;6.73;;;3.30;;
18999;SDS011;9633;50.980;13.850;2023-05-10T03:25:19;3.27;;;2.97;;
18999;SDS011;9633;50.980;13.850;2023-05-10T03:26:54;3.77;;;2.50;;
18999;SDS011;9633;50.980;13.850;2023-05-10T03:28:29;5.60;;;2.97;;
18999;SDS011;9633;50.980;13.850;2023-05-10T03:30:04;3.57;;;2.53;;
18999;SDS011;9633;50.980;13.850;2023-05-10T03:31:40;4.90;;;3.10;;
18999;SDS011;9633;50.980;13.850;2023-05-10T03:33:13;3.83;;;2.90;;
18999;SDS011;9633;50.980;13.850;2023-05-10T03:34:49;4.17;;;2.77;;
18999;SDS011;9633;50.980;13.850;2023-05-10T03:36:22;5.63;;;2.97;;
18999;SDS011;9633;50.980;13.850;2023-05-10T03:37:55;3.90;;;3.00;;
18999;SDS011;9633;50.980;13.850;2023-05-10T03:39:29;4.80;;;2.83;;
18999;SDS011;9633;50.980;13.850;2023-05-10T03:41:03;3.90;;;2.63;;
18999;SDS011;9633;50.980;13.850;2023-05-10T03:42:36;3.33;;;2.80;;
18999;SDS011;9633;50.980;13.850;2023-05-10T03:44:10;3.23;;;2.67;;
18999;SDS011;9633;50.980;13.850;2023-05-10T03:45:43;4.67;;;2.87;;
18999;SDS011;9633;50.980;13.850;2023-05-10T03:47:15;4.13;;;2.67;;
18999;SDS011;9633;50.980;13.850;2023-05-10T03:48:48;3.17;;;2.87;;
18999;SDS011;9633;50.980;13.850;2023-05-10T03:50:22;3.70;;;2.70;;
18999;SDS011;9633;50.980;13.850;2023-05-10T03:51:55;6.30;;;3.10;;
18999;SDS011;9633;50.980;13.850;2023-05-10T03:53:27;2.90;;;2.60;;
18999;SDS011;9633;50.980;13.850;2023-05-10T03:55:01;4.27;;;2.67;;
18999;SDS011;9633;50.980;13.850;2023-05-10T03:56:35;3.97;;;2.50;;
18999;SDS011;9633;50.980;13.850;2023-05-10T03:58:10;3.87;;;2.63;;
18999;SDS011;9633;50.980;13.850;2023-05-10T03:59:42;3.20;;;2.70;;
18999;SDS011;9633;50.980;13.850;2023-05-10T04:01:16;3.87;;;2.70;;
18999;SDS011;9633;50.980;13.850;2023-05-10T04:02:50;2.83;;;2.50;;
18999;SDS011;9633;50.980;13.850;2023-05-10T04:04:24;3.10;;;2.50;;
18999;SDS011;9633;50.980;13.850;2023-05-10T04:05:58;3.87;;;2.47;;
18999;SDS011;9633;50.980;13.850;2023-05-10T04:07:31;4.70;;;2.47;;
18999;SDS011;9633;50.980;13.850;2023-05-10T04:09:05;3.90;;;2.33;;
18999;SDS011;9633;50.980;13.850;2023-05-10T04:10:38;3.00;;;2.70;;
18999;SDS011;9633;50.980;13.850;2023-05-10T04:12:11;5.53;;;2.80;;
18999;SDS011;9633;50.980;13.850;2023-05-10T04:13:45;3.40;;;3.07;;
18999;SDS011;9633;50.980;13.850;2023-05-10T04:15:18;3.90;;;2.77;;
18999;SDS011;9633;50.980;13.850;2023-05-10T04:16:51;3.03;;;2.40;;
18999;SDS011;9633;50.980;13.850;2023-05-10T04:18:24;4.13;;;2.53;;
18999;SDS011;9633;50.980;13.850;2023-05-10T04:19:57;2.90;;;2.43;;
18999;SDS011;9633;50.980;13.850;2023-05-10T04:21:30;4.47;;;2.57;;
18999;SDS011;9633;50.980;13.850;2023-05-10T04:23:02;5.37;;;2.70;;
18999;SDS011;9633;50.980;13.850;2023-05-10T04:24:36;3.33;;;2.70;;
18999;SDS011;9633;50.980;13.850;2023-05-10T04:26:09;3.67;;;2.27;;
18999;SDS011;9633;50.980;13.850;2023-05-10T04:27:42;5.80;;;2.70;;
18999;SDS011;9633;50.980;13.850;2023-05-10T04:29:16;3.43;;;2.73;;
18999;SDS011;9633;50.980;13.850;2023-05-10T04:30:49;5.17;;;2.57;;
18999;SDS011;9633;50.980;13.850;2023-05-10T04:32:22;4.20;;;2.70;;
18999;SDS011;9633;50.980;13.850;2023-05-10T04:33:54;5.37;;;2.63;;
18999;SDS011;9633;50.980;13.850;2023-05-10T04:35:27;3.57;;;2.80;;
18999;SDS011;9633;50.980;13.850;2023-05-10T04:37:00;5.43;;;2.50;;
18999;SDS011;9633;50.980;13.850;2023-05-10T04:38:34;3.30;;;3.00;;
18999;SDS011;9633;50.980;13.850;2023-05-10T04:40:07;4.40;;;2.43;;
18999;SDS011;9633;50.980;13.850;2023-05-10T04:41:43;4.07;;;2.63;;
18999;SDS011;9633;50.980;13.850;2023-05-10T04:43:16;5.13;;;2.50;;
18999;SDS011;9633;50.980;13.850;2023-05-10T04:44:49;2.67;;;2.30;;
18999;SDS011;9633;50.980;13.850;2023-05-10T04:46:23;4.73;;;2.30;;
18999;SDS011;9633;50.980;13.850;2023-05-10T04:47:56;2.53;;;2.33;;
18999;SDS011;9633;50.980;13.850;2023-05-10T04:49:29;6.07;;;2.30;;
18999;SDS011;9633;50.980;13.850;2023-05-10T04:51:02;3.57;;;2.50;;
18999;SDS011;9633;50.980;13.850;2023-05-10T04:52:37;3.47;;;2.50;;
18999;SDS011;9633;50.980;13.850;2023-05-10T04:54:10;11.00;;;3.40;;
18999;SDS011;9633;50.980;13.850;2023-05-10T04:55:42;5.20;;;2.40;;
18999;SDS011;9633;50.980;13.850;2023-05-10T04:57:17;4.20;;;2.23;;
18999;SDS011;9633;50.980;13.850;2023-05-10T04:58:50;3.80;;;2.33;;
18999;SDS011;9633;50.980;13.850;2023-05-10T05:00:23;4.87;;;2.23;;
18999;SDS011;9633;50.980;13.850;2023-05-10T05:01:57;3.10;;;2.10;;
18999;SDS011;9633;50.980;13.850;2023-05-10T05:03:30;3.97;;;2.40;;
18999;SDS011;9633;50.980;13.850;2023-05-10T05:05:04;3.50;;;2.47;;
18999;SDS011;9633;50.980;13.850;2023-05-10T05:06:38;5.20;;;2.47;;
18999;SDS011;9633;50.980;13.850;2023-05-10T05:08:11;2.97;;;2.17;;
18999;SDS011;9633;50.980;13.850;2023-05-10T05:09:44;2.83;;;2.17;;
18999;SDS011;9633;50.980;13.850;2023-05-10T05:11:17;5.17;;;2.63;;
18999;SDS011;9633;50.980;13.850;2023-05-10T05:12:52;3.13;;;2.40;;
18999;SDS011;9633;50.980;13.850;2023-05-10T05:14:24;4.43;;;2.37;;
18999;SDS011;9633;50.980;13.850;2023-05-10T05:15:59;3.97;;;2.00;;
18999;SDS011;9633;50.980;13.850;2023-05-10T05:17:33;4.50;;;2.70;;
18999;SDS011;9633;50.980;13.850;2023-05-10T05:19:06;5.47;;;2.37;;
18999;SDS011;9633;50.980;13.850;2023-05-10T05:20:39;3.10;;;2.20;;
18999;SDS011;9633;50.980;13.850;2023-05-10T05:22:12;2.80;;;2.30;;
18999;SDS011;9633;50.980;13.850;2023-05-10T05:23:47;2.67;;;2.20;;
18999;SDS011;9633;50.980;13.850;2023-05-10T05:25:20;3.43;;;2.60;;
18999;SDS011;9633;50.980;13.850;2023-05-10T05:26:53;4.93;;;2.13;;
18999;SDS011;9633;50.980;13.850;2023-05-10T05:28:28;2.73;;;2.23;;
18999;SDS011;9633;50.980;13.850;2023-05-10T05:30:04;2.97;;;2.20;;
18999;SDS011;9633;50.980;13.850;2023-05-10T05:31:38;3.10;;;2.23;;
18999;SDS011;9633;50.980;13.850;2023-05-10T05:33:12;3.93;;;2.20;;
18999;SDS011;9633;50.980;13.850;2023-05-10T05:34:46;5.03;;;2.67;;
18999;SDS011;9633;50.980;13.850;2023-05-10T05:36:18;8.20;;;2.53;;
18999;SDS011;9633;50.980;13.850;2023-05-10T05:37:52;5.53;;;2.50;;
18999;SDS011;9633;50.980;13.850;2023-05-10T05:39:25;3.23;;;2.47;;
18999;SDS011;9633;50.980;13.850;2023-05-10T05:40:58;3.33;;;1.97;;
18999;SDS011;9633;50.980;13.850;2023-05-10T05:42:31;5.00;;;2.23;;
18999;SDS011;9633;50.980;13.850;2023-05-10T05:44:05;3.87;;;2.37;;
18999;SDS011;9633;50.980;13.850;2023-05-10T05:45:39;3.23;;;2.20;;
18999;SDS011;9633;50.980;13.850;2023-05-10T05:47:12;2.97;;;2.07;;
18999;SDS011;9633;50.980;13.850;2023-05-10T05:48:45;5.37;;;2.10;;
18999;SDS011;9633;50.980;13.850;2023-05-10T05:50:18;2.53;;;2.27;;
18999;SDS011;9633;50.980;13.850;2023-05-10T05:51:51;4.70;;;2.40;;
18999;SDS011;9633;50.980;13.850;2023-05-10T05:53:24;4.83;;;2.53;;
18999;SDS011;9633;50.980;13.850;2023-05-10T05:54:57;2.90;;;2.17;;
18999;SDS011;9633;50.980;13.850;2023-05-10T05:56:31;2.63;;;2.13;;
18999;SDS011;9633;50.980;13.850;2023-05-10T05:58:04;7.83;;;2.47;;
18999;SDS011;9633;50.980;13.850;2023-05-10T05:59:39;4.30;;;2.10;;
18999;SDS011;9633;50.980;13.850;2023-05-10T06:01:15;3.10;;;2.10;;
18999;SDS011;9633;50.980;13.850;2023-05-10T06:02:48;4.53;;;2.07;;
18999;SDS011;9633;50.980;13.850;2023-05-10T06:04:21;2.20;;;2.00;;
18999;SDS011;9633;50.980;13.850;2023-05-10T06:05:54;4.03;;;2.30;;
18999;SDS011;9633;50.980;13.850;2023-05-10T06:07:27;4.23;;;2.40;;
18999;SDS011;9633;50.980;13.850;2023-05-10T06:09:00;3.53;;;2.23;;
18999;SDS011;9633;50.980;13.850;2023-05-10T06:10:34;4.13;;;1.97;;
18999;SDS011;9633;50.980;13.850;2023-05-10T06:12:07;2.27;;;1.80;;
18999;SDS011;9633;50.980;13.850;2023-05-10T06:13:40;2.50;;;2.03;;
18999;SDS011;9633;50.980;13.850;2023-05-10T06:15:15;4.03;;;1.97;;
18999;SDS011;9633;50.980;13.850;2023-05-10T06:16:48;3.57;;;2.30;;
18999;SDS011;9633;50.980;13.850;2023-05-10T06:18:21;2.30;;;2.00;;
18999;SDS011;9633;50.980;13.850;2023-05-10T06:19:55;2.40;;;2.10;;
18999;SDS011;9633;50.980;13.850;2023-05-10T06:21:28;2.43;;;2.23;;
18999;SDS011;9633;50.980;13.850;2023-05-10T06:23:01;3.40;;;2.30;;
18999;SDS011;9633;50.980;13.850;2023-05-10T06:24:34;6.23;;;2.50;;
18999;SDS011;9633;50.980;13.850;2023-05-10T06:26:07;3.77;;;2.13;;
18999;SDS011;9633;50.980;13.850;2023-05-10T06:27:40;2.97;;;2.67;;
18999;SDS011;9633;50.980;13.850;2023-05-10T06:29:16;2.20;;;2.00;;
18999;SDS011;9633;50.980;13.850;2023-05-10T06:30:50;4.20;;;2.23;;
18999;SDS011;9633;50.980;13.850;2023-05-10T06:32:23;5.23;;;2.60;;
18999;SDS011;9633;50.980;13.850;2023-05-10T06:33:56;3.83;;;2.37;;
18999;SDS011;9633;50.980;13.850;2023-05-10T06:35:30;3.63;;;2.40;;
18999;SDS011;9633;50.980;13.850;2023-05-10T06:37:04;4.20;;;2.40;;
18999;SDS011;9633;50.980;13.850;2023-05-10T06:38:37;2.67;;;2.20;;
18999;SDS011;9633;50.980;13.850;2023-05-10T06:40:11;3.13;;;2.27;;
18999;SDS011;9633;50.980;13.850;2023-05-10T06:41:44;2.93;;;2.70;;
18999;SDS011;9633;50.980;13.850;2023-05-10T06:43:17;2.63;;;2.20;;
18999;SDS011;9633;50.980;13.850;2023-05-10T06:44:50;2.60;;;2.40;;
18999;SDS011;9633;50.980;13.850;2023-05-10T06:46:25;3.67;;;2.10;;
18999;SDS011;9633;50.980;13.850;2023-05-10T06:47:58;4.10;;;2.43;;
18999;SDS011;9633;50.980;13.850;2023-05-10T06:49:31;2.50;;;2.10;;
18999;SDS011;9633;50.980;13.850;2023-05-10T06:51:04;4.33;;;2.47;;
18999;SDS011;9633;50.980;13.850;2023-05-10T06:52:37;2.57;;;2.37;;
18999;SDS011;9633;50.980;13.850;2023-05-10T06:54:11;2.97;;;2.10;;
18999;SDS011;9633;50.980;13.850;2023-05-10T06:55:44;4.50;;;2.43;;
18999;SDS011;9633;50.980;13.850;2023-05-10T06:57:17;4.10;;;2.77;;
18999;SDS011;9633;50.980;13.850;2023-05-10T06:59:02;4.10;;;2.20;;
18999;SDS011;9633;50.980;13.850;2023-05-10T07:00:35;2.53;;;2.13;;
18999;SDS011;9633;50.980;13.850;2023-05-10T07:02:13;3.80;;;2.33;;
18999;SDS011;9633;50.980;13.850;2023-05-10T07:03:47;3.27;;;2.50;;
18999;SDS011;9633;50.980;13.850;2023-05-10T07:05:21;2.83;;;2.53;;
18999;SDS011;9633;50.980;13.850;2023-05-10T07:06:54;4.30;;;2.67;;
18999;SDS011;9633;50.980;13.850;2023-05-10T07:08:27;6.03;;;2.77;;
18999;SDS011;9633;50.980;13.850;2023-05-10T07:10:01;3.90;;;2.47;;
18999;SDS011;9633;50.980;13.850;2023-05-10T07:11:34;3.37;;;2.20;;
18999;SDS011;9633;50.980;13.850;2023-05-10T07:13:08;2.50;;;2.30;;
18999;SDS011;9633;50.980;13.850;2023-05-10T07:14:42;3.53;;;2.50;;
18999;SDS011;9633;50.980;13.850;2023-05-10T07:16:15;3.20;;;2.60;;
18999;SDS011;9633;50.980;13.850;2023-05-10T07:17:50;2.83;;;2.40;;
18999;SDS011;9633;50.980;13.850;2023-05-10T07:19:24;3.30;;;2.33;;
18999;SDS011;9633;50.980;13.850;2023-05-10T07:20:57;4.47;;;2.87;;
18999;SDS011;9633;50.980;13.850;2023-05-10T07:22:30;3.40;;;2.53;;
18999;SDS011;9633;50.980;13.850;2023-05-10T07:24:04;3.10;;;2.80;;
18999;SDS011;9633;50.980;13.850;2023-05-10T07:25:37;4.83;;;2.63;;
18999;SDS011;9633;50.980;13.850;2023-05-10T07:27:10;4.60;;;2.33;;
18999;SDS011;9633;50.980;13.850;2023-05-10T07:28:44;2.53;;;2.33;;
18999;SDS011;9633;50.980;13.850;2023-05-10T07:30:17;5.50;;;2.50;;
18999;SDS011;9633;50.980;13.850;2023-05-10T07:31:51;3.90;;;2.60;;
18999;SDS011;9633;50.980;13.850;2023-05-10T07:33:28;5.63;;;2.77;;
18999;SDS011;9633;50.980;13.850;2023-05-10T07:35:02;3.20;;;2.90;;
18999;SDS011;9633;50.980;13.850;2023-05-10T07:36:35;6.03;;;3.10;;
18999;SDS011;9633;50.980;13.850;2023-05-10T07:38:09;4.07;;;3.07;;
18999;SDS011;9633;50.980;13.850;2023-05-10T07:39:43;2.87;;;2.67;;
18999;SDS011;9633;50.980;13.850;2023-05-10T07:41:16;5.10;;;3.03;;
18999;SDS011;9633;50.980;13.850;2023-05-10T07:42:49;3.63;;;2.57;;
18999;SDS011;9633;50.980;13.850;2023-05-10T07:44:22;2.90;;;2.60;;
18999;SDS011;9633;50.980;13.850;2023-05-10T07:45:55;5.10;;;2.80;;
18999;SDS011;9633;50.980;13.850;2023-05-10T07:47:29;5.60;;;2.70;;
18999;SDS011;9633;50.980;13.850;2023-05-10T07:49:03;4.83;;;3.00;;
18999;SDS011;9633;50.980;13.850;2023-05-10T07:50:36;5.97;;;3.10;;
18999;SDS011;9633;50.980;13.850;2023-05-10T07:52:09;3.57;;;2.80;;
18999;SDS011;9633;50.980;13.850;2023-05-10T07:53:43;3.93;;;2.77;;
18999;SDS011;9633;50.980;13.850;2023-05-10T07:55:16;6.50;;;3.10;;
18999;SDS011;9633;50.980;13.850;2023-05-10T07:56:52;3.57;;;3.10;;
18999;SDS011;9633;50.980;13.850;2023-05-10T07:58:25;4.47;;;2.93;;
18999;SDS011;9633;50.980;13.850;2023-05-10T07:59:59;3.87;;;3.43;;
18999;SDS011;9633;50.980;13.850;2023-05-10T08:01:43;5.70;;;2.80;;
18999;SDS011;9633;50.980;13.850;2023-05-10T08:03:17;3.93;;;3.00;;
18999;SDS011;9633;50.980;13.850;2023-05-10T08:04:52;3.97;;;2.60;;
18999;SDS011;9633;50.980;13.850;2023-05-10T08:06:25;5.00;;;2.90;;
18999;SDS011;9633;50.980;13.850;2023-05-10T08:07:59;4.60;;;3.00;;
18999;SDS011;9633;50.980;13.850;2023-05-10T08:09:32;4.40;;;3.10;;
18999;SDS011;9633;50.980;13.850;2023-05-10T08:11:05;5.17;;;3.13;;
18999;SDS011;9633;50.980;13.850;2023-05-10T08:12:38;4.27;;;3.20;;
18999;SDS011;9633;50.980;13.850;2023-05-10T08:14:12;5.40;;;2.80;;
18999;SDS011;9633;50.980;13.850;2023-05-10T08:15:45;5.67;;;3.10;;
18999;SDS011;9633;50.980;13.850;2023-05-10T08:17:18;3.10;;;2.80;;
18999;SDS011;9633;50.980;13.850;2023-05-10T08:18:54;4.63;;;2.77;;
18999;SDS011;9633;50.980;13.850;2023-05-10T08:20:29;4.47;;;2.90;;
18999;SDS011;9633;50.980;13.850;2023-05-10T08:22:02;4.03;;;2.80;;
18999;SDS011;9633;50.980;13.850;2023-05-10T08:23:35;3.60;;;3.10;;
18999;SDS011;9633;50.980;13.850;2023-05-10T08:25:08;3.47;;;2.90;;
18999;SDS011;9633;50.980;13.850;2023-05-10T08:26:41;4.47;;;3.33;;
18999;SDS011;9633;50.980;13.850;2023-05-10T08:28:14;7.13;;;3.13;;
18999;SDS011;9633;50.980;13.850;2023-05-10T08:29:47;4.50;;;3.03;;
18999;SDS011;9633;50.980;13.850;2023-05-10T08:31:21;3.67;;;3.30;;
18999;SDS011;9633;50.980;13.850;2023-05-10T08:32:54;2.77;;;2.57;;
18999;SDS011;9633;50.980;13.850;2023-05-10T08:34:27;5.07;;;3.37;;
18999;SDS011;9633;50.980;13.850;2023-05-10T08:36:03;6.83;;;3.47;;
18999;SDS011;9633;50.980;13.850;2023-05-10T08:37:37;5.93;;;3.33;;
18999;SDS011;9633;50.980;13.850;2023-05-10T08:39:10;5.63;;;3.10;;
18999;SDS011;9633;50.980;13.850;2023-05-10T08:41:00;5.93;;;3.47;;
18999;SDS011;9633;50.980;13.850;2023-05-10T08:42:36;3.63;;;2.80;;
18999;SDS011;9633;50.980;13.850;2023-05-10T08:44:12;4.17;;;3.53;;
18999;SDS011;9633;50.980;13.850;2023-05-10T08:45:46;4.33;;;3.20;;
18999;SDS011;9633;50.980;13.850;2023-05-10T08:47:19;4.53;;;3.17;;
18999;SDS011;9633;50.980;13.850;2023-05-10T08:48:53;3.50;;;3.17;;
18999;SDS011;9633;50.980;13.850;2023-05-10T08:50:28;3.70;;;3.13;;
18999;SDS011;9633;50.980;13.850;2023-05-10T08:52:04;6.10;;;3.33;;
18999;SDS011;9633;50.980;13.850;2023-05-10T08:53:39;3.73;;;2.97;;
18999;SDS011;9633;50.980;13.850;2023-05-10T08:55:13;4.17;;;3.30;;
18999;SDS011;9633;50.980;13.850;2023-05-10T08:56:46;4.60;;;3.23;;
18999;SDS011;9633;50.980;13.850;2023-05-10T08:58:20;4.50;;;3.10;;
18999;SDS011;9633;50.980;13.850;2023-05-10T08:59:53;5.10;;;3.30;;
18999;SDS011;9633;50.980;13.850;2023-05-10T09:01:26;5.57;;;3.60;;
18999;SDS011;9633;50.980;13.850;2023-05-10T09:03:01;5.53;;;3.20;;
18999;SDS011;9633;50.980;13.850;2023-05-10T09:04:35;3.70;;;2.93;;
18999;SDS011;9633;50.980;13.850;2023-05-10T09:06:08;6.00;;;3.33;;
18999;SDS011;9633;50.980;13.850;2023-05-10T09:07:45;6.00;;;3.43;;
18999;SDS011;9633;50.980;13.850;2023-05-10T09:09:19;4.03;;;3.40;;
18999;SDS011;9633;50.980;13.850;2023-05-10T09:10:53;5.40;;;3.37;;
18999;SDS011;9633;50.980;13.850;2023-05-10T09:12:26;5.70;;;3.43;;
18999;SDS011;9633;50.980;13.850;2023-05-10T09:14:00;4.50;;;3.10;;
18999;SDS011;9633;50.980;13.850;2023-05-10T09:15:34;4.63;;;3.30;;
18999;SDS011;9633;50.980;13.850;2023-05-10T09:17:07;4.20;;;3.37;;
18999;SDS011;9633;50.980;13.850;2023-05-10T09:18:40;3.47;;;3.17;;
18999;SDS011;9633;50.980;13.850;2023-05-10T09:20:13;4.30;;;3.30;;
18999;SDS011;9633;50.980;13.850;2023-05-10T09:21:48;7.80;;;3.70;;
18999;SDS011;9633;50.980;13.850;2023-05-10T09:23:23;5.00;;;3.60;;
18999;SDS011;9633;50.980;13.850;2023-05-10T09:25:06;5.57;;;3.30;;
18999;SDS011;9633;50.980;13.850;2023-05-10T09:26:45;4.83;;;3.20;;
18999;SDS011;9633;50.980;13.850;2023-05-10T09:28:19;5.37;;;3.67;;
18999;SDS011;9633;50.980;13.850;2023-05-10T09:29:53;4.63;;;3.10;;